PASY METAR and TAF weather

Enter ICAO airport designator
Station Type Date Time Source
PASY METAR 2022/06/30 00:58 UTC NOAA

PASY 300058Z AUTO M 7SM M 09/M45 A2962 RMK AO2 SLP034 T00921446 PNO $


Station Type Date Time Source
PASY Decoded METAR 2022/06/30 00:58 UTC NOAA

SHEMYA EARECKSON AS, AK, United States (PASY) 52-43N 174-07E
Jun 29, 2022 - 08:58 PM EDT / 2022.06.30 0058 UTC
Visibility: 7 mile(s):0
Temperature: 48.6 F (9.2 C)
Dew Point: -48.3 F (-44.6 C)
Relative Humidity: 0%
Pressure (altimeter): 29.62 in. Hg (1003 hPa)
ob: PASY 300058Z AUTO M 7SM M 09/M45 A2962 RMK AO2 SLP034 T00921446 PNO
cycle: 1

Station Type Date Time Source
PASY TAF 2022/06/29 22:21 UTC NOAA

TAF TAF PASY 292200Z 2922/0104 32009KT 3200 BR OVC006 QNH2958INS
BECMG 3017/3018 33009KT 4800 BR BKN006 OVC012 QNH2958INS TX08/2923Z TN06/3018Z

Example: see airport list